Terminal Aerodrome Forecast
Issued by NWS

Home | Current Version | Previous Version | Text Only | Print | Product List | Glossary On
Versions: 1 2 3 4 5 6 7 8 9 10 11 12 13 14 15 16 17 18 19 20 21
710
FTUS45 KABQ 180536
TAFFMN
TAF
KFMN 180536Z 1806/1906 26005KT P6SM SCT040 BKN080
     FM180800 08005KT P6SM SCT025 BKN035
     FM181100 07003KT 2SM BR SCT005 OVC015
     FM181400 12003KT P6SM BKN050
     FM182000 28008G16KT P6SM BKN080=

USA.gov is the U.S. government's official web portal to all federal, state and local government web resources and services.